Terminal Aerodrome Forecast
Issued by NWS Grand Forks, ND

Home | Current Version | Previous Version | Text Only | Print | Product List | Glossary Off
Versions: 1 2 3 4 5 6 7 8 9 10 11 12 13

048
FTUS43 KFGF 210520
TAFGFK
TAF
KGFK 210520Z 2106/2206 17005KT P6SM SCT250
     FM211100 17005KT P6SM FEW030
     FM211300 18010KT P6SM FEW150=

USA.gov is the U.S. government's official web portal to all federal, state and local government web resources and services.